Beta Version
Granted Patents


NoApplication NoTitle Of The InnovationPatent NoGrant DateFirst Page
1 GC 2015-29567 Censer Preventing Embers Fall Equipped with Alarm Mechanism: A Methodology GC0010759 2019/09/19 HTML
2 GC 2013-24307 BLOCK COPOLYMER COMPOSITION AND SHEET GC0010758 2019/09/17 HTML
3 GC 2017-32848 STORAGE TANK CLEANING MACHINE GC0010757 2019/09/12 HTML
4 GC 2013-23957 METHOD FOR PRODUCING LUBRICANT BASE OIL GC0010756 2019/09/12 HTML
5 GC 2014-27004 PROCESS FOR WORKING UP WASTE WATER FROM NITROBENZENE PREPARATION GC0010755 2019/09/12 HTML
6 GC 2013-26061 Peptides as oxytocin agonists GC0010754 2019/09/12 HTML
7 GC 2015-29529 HYDROPROCESSING PROCESS OF GAS OIL CUTS USING A CATALYST BASED ON AN AMORPHOUS MESOPOROUS ALUMINA HAVING A HIGH CONNECTIVITY GC0010753 2019/09/12 HTML
8 GC 2015-29877 COMBINATION THERAPY OF ANTIBODIES ACTIVATING HUMAN CD40 AND ANTIBODIES AGAINST HUMAN PD-L1 GC0010752 2019/09/12 HTML
9 GC 2017-33364 DENTURE CONSTRUCTION TEACHING TOOL GC0010751 2019/09/12 HTML
10 GC 2011-17932 PHOTOVOLTAIC GENERATION SYSTEM AND POWER FEEDING SYSTEM GC0010750 2019/09/12 HTML
11 GC 2014-27056 FCRN-BINDING ABOLISHED ANTI-IGF-1R ANTIBODIES AND THEIR USE IN THE TREATMENT OF VASCULAR EYE DISEASES GC0010749 2019/09/11 HTML
12 GC 2013-25720 5-HT3 RECEPTOR ANTAGONISTS GC0010748 2019/09/10 HTML
13 GC 2012-20641 CEA ANTIBODIES GC0010747 2019/09/10 HTML
14 GC 2014-27863 Novel triazolo[4,5-d]pyrimidine derivatives GC0010746 2019/09/10 HTML
15 GC 2015-28746 CATALYTIC CRACKING PROCESS ALLOWING IMPROVED UPCYCLING OF THE CALORIES FROM THE COMBUSTION FUMES GC0010745 2019/09/10 HTML
16 GC 2014-28009 NEW 1-4-PYRIMIDINYL-1H-PYRROLO[3,2-c]PYRIDINE DERIVATIVES AS NIK INHIBITORS GC0010744 2019/09/10 HTML
17 GC 2014-27055 PROCESS FOR THE PREPARATION OF A CATALYST BASED ON TUNGSTEN FOR USE IN HYDROTREATMENT OR IN HYDROCRACKING GC0010743 2019/09/10 HTML
18 GC 2014-26494 BISPECIFIC T CELL ACTIVATING ANTIGEN BINDING MOLECULES GC0010742 2019/09/10 HTML
19 GC 2013-25129 PROCESS FOR THE PREPARATION OF C-FMS KINASE INHIBITORS GC0010741 2019/09/10 HTML
20 GC 2010-15762 METHOD FOR PRODUCING SILICA-SUPPORTED CATALYST, AND METHOD FOR PRODUCING UNSATURATED CARBOXYLIC ACID OR UNSATURATED NITRILE GC0010740 2019/09/10 HTML
21 GC 2014-27406 PROCESS FOR THE PREPARATION OF METHANOL IN PARALLEL REACTORS GC0010739 2019/09/10 HTML
22 GC 2015-29427 OXIDE CATALYST AND METHOD FOR PRODUCING SAME, AND METHOD FOR PRODUCING UNSATURATED NITRILE GC0010738 2019/09/10 HTML
23 GC 2015-29712 SYNERGISTIC ANTIMICROBIAL COMPOSITION GC0010737 2019/09/05 HTML
24 GC 2011-34636 TRANSMISSION METHOD, TRANSMISSION APPARATUS, RECEPTION METHOD AND RECEPTION APPARATUS GC0010736 2019/08/29 HTML
25 GC 2009-14600 AMPLIFIED FLUORESCENCE POLYMERS AND SENSOR THEREOF GC0010735 2019/08/29 HTML
26 GC 2017-32904 PROCESS TO MITIGATE UNWANTED FORMATION OF POPCORN POLYMERS GC0010734 2019/08/26 HTML
27 GC 2016-31199 THREADED TUBULAR ELEMENT PROVIDED WITH A METALLIC ANTI-GALLING COATING AND A LUBRICANT LAYER GC0010733 2019/08/25 HTML
28 GC 2016-31196 NUCLEAR MAGNETIC RESONANCE GAS ISOTHERM TECHNIQUE TO EVALUATE RESERVOIR ROCK WETTABILITY GC0010732 2019/08/25 HTML
29 GC 2014-28449 CATHODIC PROTECTION AUTOMATED CURRENT AND POTENTIAL MEASURING DEVICE FOR ANODES PROTECTING VESSEL INTERNALS GC0010731 2019/08/25 HTML
30 GC 2012-21615 AN ADDITIVE IMPREGNATED COMPOSITION USEFUL IN THE CATALYTIC HYDROPROCESSING OF HYDROCARBONS, A METHOD OF MAKING SUCH CATALYST, AND A PROCESS OF USING SUCH CATALYST GC0010730 2019/08/25 HTML
31 GC 2014-26737 TWO-STAGE SEAL FOR A VALVE GC0010729 2019/08/25 HTML
32 GC 2011-18479 ANTIBODIES TO HUMAN GDF8 GC0010728 2019/08/25 HTML
33 GC 2010-15429 PROCESS FOR THE RECOVERY OF PURE AROMATICS FROM HYDROCARBON FRACTIONS CONTAINING AROMATICS GC0010727 2019/08/25 HTML
34 GC 2013-25017 ZEOLITE CATALYSTS, METHODS FOR PRODUCING ZEOLITE CATALYSTS, AND METHODS FOR PRODUCING LOWER OLEFINS GC0010726 2019/08/25 HTML
35 GC 2016-32494 PROPYLENE BASED POLYMER COMPOSITION GC0010725 2019/08/25 HTML
36 GC 2015-29801 GAS LIFT VALVE GC0010724 2019/08/25 HTML
37 GC 2005-4279 METHOD FOR THE SEPARATION OF IONTERMEDIATES WHICH MAY BE USED FOR THE PREPARATION OF ESCITALOPRAM GC0010723 2019/08/25 HTML
38 GC 2012-20849 HIGHLY-CONCENTRATED FLOWABLE SALTS OF ALKYL POLYALKOXY SUL-PHATES GC0010722 2019/08/25 HTML
39 GC 2017-33836 METHOD AND SYSTEM FOR FORMING A PIPELINE GC0010721 2019/08/22 HTML
40 GC 2011-18403 METHOD AND DEVICE FOR CLEANING A HEAT EXCHANGER GC0010720 2019/08/22 HTML
41 GC 2014-26353 RESIDUE HYDROCRACKING PROCESSING GC0010719 2019/08/22 HTML
42 GC 2015-30626 ADSORBENT MATERIALS AND METHODS OF USE GC0010718 2019/08/22 HTML
43 GC 2017-32755 SAFETY WHEEL ASSEMBLY FOR A GUIDED VEHICLE GC0010717 2019/08/22 HTML
44 GC 2016-31091 FLUID DRIVEN COMMINGLING SYSTEM FOR OIL AND GAS APPLICATIONS GC0010716 2019/08/22 HTML
45 GC 2012-33752 HYDROTREATING OF AROMATIC-EXTRACTED HYDROCARBON STREAMS GC0010715 2019/08/22 HTML
46 GC 2013-24220 METHOD FOR IDENTIFYING AN AIRPLANE IN CONNECTION WITH PARKING OF THE AIRPLANE AT A STAND GC0010714 2019/08/22 HTML
47 GC 2011-19935 PROCESS FOR IMPROVING THE SELECTIVITY OF AN EO CATALYST GC0010713 2019/08/22 HTML
48 GC 2017-32985 POLYMERIZATION PROCESS GC0010712 2019/08/22 HTML
49 GC 2016-30806 A CREEPAGE PROTECTION ASSEMBLY AND A PANEL BOX/CABINET COMPRISING THE ASSEMBLY GC0010711 2019/08/22 HTML
50 GC 2016-32594 METHODS AND APPARATUS TO CALIBRATE ROD PUMP CONTROLLERS GC0010710 2019/08/22 HTML
12345678910...
العدد:

All Rights Reserved